createdAt,value
2024-05-09T00:00:36.177Z,22.17
2024-05-09T00:03:11.353Z,23.07
2024-05-09T00:05:44.318Z,19.57
2024-05-09T00:08:15.234Z,17.53
2024-05-09T00:10:45.868Z,20.07
2024-05-09T00:13:18.974Z,16.37
2024-05-09T00:15:49.313Z,16.40
2024-05-09T00:18:19.780Z,23.40
2024-05-09T00:20:50.319Z,23.40
2024-05-09T00:23:20.732Z,16.53
2024-05-09T00:25:50.982Z,15.70
2024-05-09T00:28:25.860Z,16.43
2024-05-09T00:30:56.403Z,18.37
2024-05-09T00:33:27.007Z,18.43
2024-05-09T00:35:57.353Z,19.63
2024-05-09T00:38:27.611Z,16.83
2024-05-09T00:40:58.055Z,21.47
2024-05-09T00:43:32.855Z,19.73
2024-05-09T00:46:03.343Z,18.13
2024-05-09T00:48:34.786Z,16.50
2024-05-09T00:51:05.745Z,15.13
2024-05-09T00:53:37.073Z,18.23
2024-05-09T00:56:08.448Z,18.47
2024-05-09T00:58:42.332Z,17.43
2024-05-09T01:01:13.498Z,18.53
2024-05-09T01:03:45.252Z,18.57
2024-05-09T01:06:17.118Z,15.90
2024-05-09T01:08:47.551Z,16.20
2024-05-09T01:11:18.752Z,19.93
2024-05-09T01:13:52.053Z,21.97
2024-05-09T01:16:22.546Z,21.77
2024-05-09T01:18:53.246Z,21.83
2024-05-09T01:21:23.749Z,25.87
2024-05-09T01:23:56.791Z,19.90
2024-05-09T01:26:27.074Z,19.03
2024-05-09T01:28:57.378Z,20.30
2024-05-09T01:31:27.735Z,17.83
2024-05-09T01:33:58.111Z,18.43
2024-05-09T01:36:28.450Z,16.10
2024-05-09T01:39:01.606Z,22.77
2024-05-09T01:41:31.909Z,19.03
2024-05-09T01:44:02.230Z,18.83
2024-05-09T01:46:32.433Z,16.00
2024-05-09T01:49:03.079Z,16.20
2024-05-09T01:51:33.492Z,18.70
2024-05-09T01:54:06.334Z,23.67
2024-05-09T01:56:36.626Z,18.50
2024-05-09T01:59:07.846Z,17.47
2024-05-09T02:01:55.753Z,20.13
2024-05-09T02:04:28.223Z,18.73
2024-05-09T02:06:58.722Z,18.23
2024-05-09T02:09:31.629Z,17.03
2024-05-09T02:12:02.216Z,16.00
2024-05-09T02:14:32.819Z,16.47
2024-05-09T02:17:03.513Z,14.10
2024-05-09T02:19:33.927Z,19.30
2024-05-09T02:22:04.081Z,19.10
2024-05-09T02:24:36.959Z,22.27
2024-05-09T02:27:07.637Z,14.13
2024-05-09T02:29:37.966Z,17.93
2024-05-09T02:32:09.052Z,19.97
2024-05-09T02:34:39.553Z,18.83
2024-05-09T02:37:09.671Z,18.00
2024-05-09T02:39:40.160Z,16.07
2024-05-09T02:42:10.488Z,16.87
2024-05-09T02:44:38.360Z,19.57
2024-05-09T02:47:08.804Z,16.80
2024-05-09T02:49:36.586Z,17.60
2024-05-09T02:52:07.675Z,17.37
2024-05-09T02:54:35.445Z,18.33
2024-05-09T02:57:08.517Z,15.47
2024-05-09T02:59:36.299Z,16.80
2024-05-09T03:02:06.716Z,15.23
2024-05-09T03:04:34.670Z,14.50
2024-05-09T03:07:04.929Z,15.67
2024-05-09T03:09:32.313Z,16.13
2024-05-09T03:12:02.680Z,15.30
2024-05-09T03:14:33.058Z,15.93
2024-05-09T03:17:03.305Z,20.03
2024-05-09T03:19:31.228Z,20.67
2024-05-09T03:22:02.070Z,20.00
2024-05-09T03:24:29.782Z,16.73
2024-05-09T03:26:59.997Z,15.37
2024-05-09T03:29:27.929Z,19.30
2024-05-09T03:32:01.646Z,20.50
2024-05-09T03:34:29.482Z,22.03
2024-05-09T03:36:59.697Z,15.80
2024-05-09T03:39:29.954Z,19.53
2024-05-09T03:42:00.396Z,15.93
2024-05-09T03:44:30.601Z,16.13
2024-05-09T03:47:00.799Z,19.83
2024-05-09T03:49:30.994Z,18.80
2024-05-09T03:51:58.652Z,15.90
2024-05-09T03:54:29.005Z,15.63
2024-05-09T03:56:57.359Z,19.10
2024-05-09T03:59:27.719Z,15.27
2024-05-09T04:01:55.582Z,17.10
2024-05-09T04:04:28.519Z,17.90
2024-05-09T04:06:56.029Z,16.40
2024-05-09T04:09:26.177Z,17.37
2024-05-09T04:11:53.847Z,16.57
2024-05-09T04:14:24.344Z,17.63
2024-05-09T04:16:52.137Z,18.00
2024-05-09T04:19:22.665Z,21.17
2024-05-09T04:21:52.855Z,21.80
2024-05-09T04:24:23.188Z,17.93
2024-05-09T04:26:51.028Z,16.47
2024-05-09T04:29:21.402Z,17.87
2024-05-09T04:31:48.982Z,24.33
2024-05-09T04:34:19.297Z,24.80
2024-05-09T04:36:47.031Z,25.90
2024-05-09T04:39:19.786Z,22.30
2024-05-09T04:41:47.637Z,22.13
2024-05-09T04:44:18.050Z,21.37
2024-05-09T04:46:47.506Z,23.80
2024-05-09T04:49:18.377Z,25.20
2024-05-09T04:51:46.248Z,20.43
2024-05-09T04:54:26.261Z,22.37
2024-05-09T04:57:01.475Z,23.30
2024-05-09T04:59:31.823Z,22.73
2024-05-09T05:01:59.667Z,21.97
2024-05-09T05:04:30.111Z,23.27
2024-05-09T05:06:59.750Z,22.77
2024-05-09T05:09:34.582Z,24.83
2024-05-09T05:12:05.822Z,25.30
2024-05-09T05:14:36.172Z,26.07
2024-05-09T05:17:06.383Z,26.63
2024-05-09T05:19:34.307Z,28.77
2024-05-09T05:22:04.695Z,30.23
2024-05-09T05:24:35.354Z,28.47
2024-05-09T05:27:05.921Z,27.83
2024-05-09T05:29:33.788Z,27.27
2024-05-09T05:32:04.233Z,29.83
2024-05-09T05:34:32.174Z,33.87
2024-05-09T05:37:02.335Z,34.17
2024-05-09T05:39:29.745Z,30.03
2024-05-09T05:42:02.766Z,34.33
2024-05-09T05:44:30.465Z,39.93
2024-05-09T05:47:00.763Z,41.37
2024-05-09T05:49:28.651Z,40.03
2024-05-09T05:51:58.965Z,43.60
2024-05-09T05:54:26.654Z,39.87
2024-05-09T05:56:56.902Z,40.47
2024-05-09T05:59:29.540Z,40.97
2024-05-09T06:02:00.066Z,40.40
2024-05-09T06:04:27.924Z,39.60
2024-05-09T06:06:58.213Z,38.77
2024-05-09T06:09:25.676Z,40.17
2024-05-09T06:11:56.223Z,40.43
2024-05-09T06:14:26.591Z,39.37
2024-05-09T06:16:58.208Z,42.63
2024-05-09T06:19:26.264Z,40.40
2024-05-09T06:21:56.540Z,39.47
2024-05-09T06:24:24.122Z,38.30
2024-05-09T06:26:54.259Z,40.83
2024-05-09T06:29:22.035Z,40.77
2024-05-09T06:31:57.173Z,41.53
2024-05-09T06:34:27.292Z,39.43
2024-05-09T06:36:57.715Z,40.53
2024-05-09T06:39:25.352Z,39.00
2024-05-09T06:41:55.736Z,39.50
2024-05-09T06:44:26.651Z,40.63
2024-05-09T06:47:00.071Z,38.27
2024-05-09T06:49:30.283Z,36.77
2024-05-09T06:52:00.592Z,38.30
2024-05-09T06:54:28.236Z,35.60
2024-05-09T06:56:58.601Z,36.87
2024-05-09T06:59:26.291Z,35.17
2024-05-09T07:01:59.340Z,39.03
2024-05-09T07:04:27.072Z,33.77
2024-05-09T07:06:57.352Z,34.17
2024-05-09T07:09:25.062Z,35.17
2024-05-09T07:11:55.832Z,35.80
2024-05-09T07:14:23.506Z,33.70
2024-05-09T07:16:54.090Z,34.47
2024-05-09T07:19:24.795Z,35.73
2024-05-09T07:21:58.291Z,34.67
2024-05-09T07:24:25.929Z,34.20
2024-05-09T07:26:56.773Z,34.10
2024-05-09T07:29:24.464Z,34.00
2024-05-09T07:31:54.948Z,33.93
2024-05-09T07:34:25.600Z,35.50
2024-05-09T07:36:56.968Z,32.50
2024-05-09T07:39:24.736Z,30.87
2024-05-09T07:41:55.103Z,30.80
2024-05-09T07:44:22.760Z,31.90
2024-05-09T07:48:13.653Z,29.57
2024-05-09T07:51:32.192Z,27.70
2024-05-09T07:53:33.114Z,29.30
2024-05-09T07:55:21.533Z,30.60
2024-05-09T07:57:51.840Z,30.40
2024-05-09T08:00:26.792Z,29.87
2024-05-09T08:02:59.925Z,26.97
2024-05-09T08:05:30.498Z,25.67
2024-05-09T08:08:00.789Z,26.23
2024-05-09T08:10:29.252Z,25.03
2024-05-09T08:13:00.616Z,26.30
2024-05-09T08:15:28.521Z,26.90
2024-05-09T08:17:59.612Z,24.10
2024-05-09T08:20:33.683Z,24.10
2024-05-09T08:23:05.644Z,22.23
2024-05-09T08:25:33.512Z,24.60
2024-05-09T08:28:03.691Z,22.70
2024-05-09T08:30:36.729Z,22.30
2024-05-09T08:33:09.374Z,20.27
2024-05-09T08:35:40.927Z,22.27
2024-05-09T08:38:11.402Z,21.97
2024-05-09T08:40:39.271Z,17.40
2024-05-09T08:43:12.432Z,17.93
2024-05-09T08:45:44.319Z,18.13
2024-05-09T08:48:16.904Z,20.43
2024-05-09T08:50:50.800Z,19.87
2024-05-09T08:53:21.494Z,20.43
2024-05-09T08:55:51.366Z,19.80
2024-05-09T08:58:21.936Z,20.23
2024-05-09T09:00:49.980Z,18.63
2024-05-09T09:03:21.782Z,15.17
2024-05-09T09:06:03.058Z,17.93
2024-05-09T09:08:33.730Z,15.57
2024-05-09T09:11:01.675Z,14.03
2024-05-09T09:13:32.327Z,14.20
2024-05-09T09:16:00.367Z,12.70
2024-05-09T09:18:31.366Z,13.03
2024-05-09T09:21:03.238Z,14.30
2024-05-09T09:23:33.641Z,15.70
2024-05-09T09:26:01.805Z,16.67
2024-05-09T09:28:32.495Z,16.60
2024-05-09T09:31:03.809Z,14.73
2024-05-09T09:33:36.316Z,16.33
2024-05-09T09:36:08.983Z,17.87
2024-05-09T09:38:40.643Z,16.20
2024-05-09T09:41:11.014Z,15.77
2024-05-09T09:43:42.587Z,15.97
2024-05-09T09:46:12.988Z,16.07
2024-05-09T09:48:44.314Z,16.23
2024-05-09T09:51:16.078Z,16.87
2024-05-09T09:53:47.333Z,16.97
2024-05-09T09:56:18.198Z,17.53
2024-05-09T09:58:49.638Z,18.00
2024-05-09T10:01:17.320Z,18.97
2024-05-09T10:03:48.245Z,16.90
2024-05-09T10:06:19.608Z,16.80
2024-05-09T10:08:51.159Z,17.97
2024-05-09T10:11:20.870Z,18.37
2024-05-09T10:13:51.199Z,19.23
2024-05-09T10:16:21.800Z,18.83
2024-05-09T10:18:52.644Z,17.53
2024-05-09T10:21:24.205Z,18.27
2024-05-09T10:24:01.890Z,18.00
2024-05-09T10:26:34.198Z,17.80
2024-05-09T10:29:14.314Z,16.80
2024-05-09T10:31:43.051Z,17.80
2024-05-09T10:34:20.858Z,17.53
2024-05-09T10:36:55.487Z,16.67
2024-05-09T10:39:28.057Z,16.50
2024-05-09T10:41:55.749Z,16.90
2024-05-09T10:44:26.118Z,16.63
2024-05-09T10:46:54.942Z,16.03
2024-05-09T10:49:25.869Z,16.40
2024-05-09T10:51:56.479Z,16.93
2024-05-09T10:54:26.733Z,16.93
2024-05-09T10:56:57.923Z,15.13
2024-05-09T10:59:28.525Z,15.13
2024-05-09T11:01:56.340Z,15.17
2024-05-09T11:04:26.884Z,14.33
2024-05-09T11:06:58.956Z,13.73
2024-05-09T11:09:30.413Z,14.30
2024-05-09T11:11:58.209Z,14.00
2024-05-09T11:14:28.517Z,13.80
2024-05-09T11:16:59.551Z,13.00
2024-05-09T11:19:33.528Z,13.63
2024-05-09T11:22:04.194Z,13.17
2024-05-09T11:24:34.880Z,14.93
2024-05-09T11:27:03.818Z,12.67
2024-05-09T11:29:42.402Z,13.70
2024-05-09T11:32:11.852Z,15.40
2024-05-09T11:34:42.440Z,13.53
2024-05-09T11:37:13.977Z,13.33
2024-05-09T11:39:44.409Z,12.23
2024-05-09T11:42:12.334Z,12.53
2024-05-09T11:44:42.605Z,12.77
2024-05-09T11:47:10.489Z,12.40
2024-05-09T11:49:40.837Z,11.83
2024-05-09T11:52:08.660Z,13.10
2024-05-09T11:54:41.920Z,14.87
2024-05-09T11:57:12.575Z,14.40
2024-05-09T11:59:40.438Z,14.47
2024-05-09T12:02:11.708Z,12.70
2024-05-09T12:04:39.829Z,12.27
2024-05-09T12:07:12.887Z,13.70
2024-05-09T12:09:43.404Z,13.47
2024-05-09T12:12:15.108Z,14.30
2024-05-09T12:14:43.200Z,13.90
2024-05-09T12:17:13.939Z,13.27
2024-05-09T12:19:41.752Z,12.43
2024-05-09T12:22:12.246Z,10.90
2024-05-09T12:24:42.686Z,12.30
2024-05-09T12:27:13.277Z,12.80
2024-05-09T12:29:40.989Z,11.30
2024-05-09T12:32:11.327Z,11.70
2024-05-09T12:34:39.089Z,11.23
2024-05-09T12:37:09.664Z,11.60
2024-05-09T12:39:37.413Z,10.63
2024-05-09T12:42:14.598Z,10.93
2024-05-09T12:44:49.040Z,9.87
2024-05-09T12:47:19.827Z,10.53
2024-05-09T12:49:47.760Z,11.10
2024-05-09T12:52:18.187Z,10.20
2024-05-09T12:54:46.020Z,10.33
2024-05-09T12:57:19.090Z,10.70
2024-05-09T12:59:46.628Z,10.87
2024-05-09T13:02:17.719Z,11.00
2024-05-09T13:04:45.756Z,11.23
2024-05-09T13:07:16.331Z,11.03
2024-05-09T13:09:44.478Z,10.70
2024-05-09T13:12:14.783Z,10.57
2024-05-09T13:14:45.200Z,10.00
2024-05-09T13:17:16.244Z,11.02
2024-05-09T13:19:43.895Z,10.20
2024-05-09T13:22:14.440Z,9.03
2024-05-09T13:24:42.380Z,9.50
2024-05-09T13:27:12.919Z,9.37
2024-05-09T13:29:43.733Z,8.43
2024-05-09T13:32:17.422Z,9.03
2024-05-09T13:34:45.437Z,8.47
2024-05-09T13:37:15.779Z,9.00
2024-05-09T13:39:43.586Z,9.43
2024-05-09T13:42:14.049Z,9.40
2024-05-09T13:44:41.528Z,9.23
2024-05-09T13:47:12.495Z,8.20
2024-05-09T13:49:43.038Z,8.70
2024-05-09T13:52:13.556Z,9.10
2024-05-09T13:54:41.250Z,8.47
2024-05-09T13:57:11.905Z,9.43
2024-05-09T13:59:39.783Z,9.37
2024-05-09T14:02:11.090Z,9.60
2024-05-09T14:04:39.319Z,9.70
2024-05-09T14:07:12.970Z,9.80
2024-05-09T14:09:40.927Z,9.27
2024-05-09T14:12:11.793Z,8.90
2024-05-09T14:14:39.358Z,9.07
2024-05-09T14:17:09.668Z,9.70
2024-05-09T14:19:37.500Z,8.97
2024-05-09T14:22:11.653Z,9.10
2024-05-09T14:24:39.281Z,10.90
2024-05-09T14:27:09.517Z,9.30
2024-05-09T14:29:37.309Z,8.83
2024-05-09T14:32:08.075Z,9.17
2024-05-09T14:34:35.940Z,9.33
2024-05-09T14:37:07.045Z,8.27
2024-05-09T14:39:37.458Z,8.90
2024-05-09T14:42:08.155Z,9.77
2024-05-09T14:44:35.808Z,8.43
2024-05-09T14:47:06.410Z,8.57
2024-05-09T14:49:34.043Z,8.67
2024-05-09T14:52:04.293Z,9.97
2024-05-09T14:54:31.934Z,8.73
2024-05-09T14:57:05.325Z,8.17
2024-05-09T14:59:32.858Z,8.40
2024-05-09T15:02:03.439Z,8.10
2024-05-09T15:04:32.842Z,8.67
2024-05-09T15:07:03.622Z,8.33
2024-05-09T15:09:36.117Z,7.93
2024-05-09T15:12:10.146Z,7.13
2024-05-09T15:14:38.862Z,8.00
2024-05-09T15:17:09.264Z,7.40
2024-05-09T15:19:37.469Z,6.70
2024-05-09T15:22:08.299Z,7.90
2024-05-09T15:24:36.111Z,6.70
2024-05-09T15:27:09.402Z,7.53
2024-05-09T15:29:37.495Z,7.67
2024-05-09T15:32:08.210Z,7.97
2024-05-09T15:34:35.902Z,7.03
2024-05-09T15:37:06.718Z,7.50
2024-05-09T15:39:34.358Z,7.63
2024-05-09T15:42:08.880Z,7.17
2024-05-09T15:44:36.375Z,7.60
2024-05-09T15:47:07.365Z,7.17
2024-05-09T15:49:35.559Z,7.97
2024-05-09T15:52:06.157Z,6.60
2024-05-09T15:54:33.752Z,7.67
2024-05-09T15:57:04.194Z,7.43
2024-05-09T15:59:35.097Z,6.73
2024-05-09T16:02:06.097Z,6.53
2024-05-09T16:04:34.070Z,7.63
2024-05-09T16:07:04.514Z,7.40
2024-05-09T16:09:32.377Z,6.47
2024-05-09T16:12:02.575Z,7.80
2024-05-09T16:14:30.036Z,8.17
2024-05-09T16:17:03.355Z,7.40
2024-05-09T16:19:31.195Z,7.43
2024-05-09T16:22:02.769Z,7.53
2024-05-09T16:24:30.480Z,8.20
2024-05-09T16:27:00.999Z,7.60
2024-05-09T16:29:28.901Z,7.17
2024-05-09T16:31:59.186Z,7.83
2024-05-09T16:34:29.802Z,7.77
2024-05-09T16:37:00.906Z,8.90
2024-05-09T16:39:28.519Z,8.20
2024-05-09T16:41:58.963Z,7.63
2024-05-09T16:44:26.738Z,8.23
2024-05-09T16:46:57.030Z,8.07
2024-05-09T16:49:26.946Z,7.80
2024-05-09T16:52:00.063Z,8.47
2024-05-09T16:54:27.637Z,8.07
2024-05-09T16:56:57.951Z,9.67
2024-05-09T16:59:25.872Z,15.20
2024-05-09T17:01:58.745Z,14.40
2024-05-09T17:04:27.958Z,15.83
2024-05-09T17:07:01.329Z,16.53
2024-05-09T17:09:29.081Z,16.23
2024-05-09T17:11:59.521Z,16.57
2024-05-09T17:14:29.891Z,17.47
2024-05-09T17:17:00.641Z,17.63
2024-05-09T17:19:31.244Z,17.87
2024-05-09T17:22:01.644Z,17.50
2024-05-09T17:24:31.952Z,18.73
2024-05-09T17:27:02.812Z,17.70
2024-05-09T17:29:33.459Z,17.73
2024-05-09T17:32:01.193Z,17.97
2024-05-09T17:34:31.758Z,17.27
2024-05-09T17:37:02.681Z,16.73
2024-05-09T17:39:33.369Z,16.70
2024-05-09T17:42:01.602Z,17.83
2024-05-09T17:44:32.126Z,17.13
2024-05-09T17:47:00.312Z,16.27
2024-05-09T17:49:30.963Z,17.90
2024-05-09T17:51:58.913Z,17.60
2024-05-09T17:54:32.391Z,17.67
2024-05-09T17:57:00.501Z,15.47
2024-05-09T17:59:31.174Z,16.73
2024-05-09T18:01:59.271Z,16.80
2024-05-09T18:04:32.693Z,16.87
2024-05-09T18:07:01.605Z,18.47
2024-05-09T18:09:35.615Z,16.73
2024-05-09T18:12:03.845Z,17.00
2024-05-09T18:14:34.266Z,18.27
2024-05-09T18:17:03.303Z,17.10
2024-05-09T18:19:34.166Z,17.97
2024-05-09T18:22:02.420Z,17.33
2024-05-09T18:24:35.611Z,17.77
2024-05-09T18:27:03.412Z,17.30
2024-05-09T18:29:34.121Z,16.63
2024-05-09T18:32:01.959Z,17.07
2024-05-09T18:34:32.591Z,16.60
2024-05-09T18:37:02.914Z,16.97
2024-05-09T18:39:36.817Z,16.80
2024-05-09T18:42:04.963Z,16.23
2024-05-09T18:44:35.388Z,17.13
2024-05-09T18:47:04.283Z,16.47
2024-05-09T18:49:34.851Z,15.00
2024-05-09T18:52:02.592Z,13.53
2024-05-09T18:54:33.172Z,13.70
2024-05-09T18:57:03.844Z,13.67
2024-05-09T18:59:34.428Z,15.30
2024-05-09T19:02:03.445Z,14.73
2024-05-09T19:04:34.503Z,14.67
2024-05-09T19:07:04.436Z,12.50
2024-05-09T19:09:35.624Z,15.93
2024-05-09T19:12:06.668Z,14.53
2024-05-09T19:14:37.142Z,16.97
2024-05-09T19:17:05.121Z,16.77
2024-05-09T19:19:35.580Z,15.37
2024-05-09T19:22:06.751Z,16.77
2024-05-09T19:24:38.990Z,16.10
2024-05-09T19:27:09.534Z,13.67
2024-05-09T19:29:39.997Z,16.03
2024-05-09T19:32:07.835Z,17.43
2024-05-09T19:34:38.301Z,16.27
2024-05-09T19:37:06.029Z,15.53
2024-05-09T19:39:36.552Z,13.20
2024-05-09T19:42:05.116Z,12.33
2024-05-09T19:44:38.519Z,14.70
2024-05-09T19:47:06.417Z,15.40
2024-05-09T19:49:36.901Z,14.17
2024-05-09T19:52:05.367Z,15.63
2024-05-09T19:54:35.795Z,12.07
2024-05-09T19:57:04.203Z,13.20
2024-05-09T19:59:37.632Z,18.73
2024-05-09T20:02:09.262Z,17.10
2024-05-09T20:04:39.895Z,17.30
2024-05-09T20:07:07.845Z,12.33
2024-05-09T20:09:38.965Z,13.80
2024-05-09T20:12:07.079Z,18.80
2024-05-09T20:14:40.377Z,14.03
2024-05-09T20:17:08.326Z,15.70
2024-05-09T20:19:38.779Z,16.77
2024-05-09T20:22:06.732Z,13.03
2024-05-09T20:24:39.918Z,15.47
2024-05-09T20:27:08.159Z,12.33
2024-05-09T20:29:44.110Z,11.77
2024-05-09T20:32:12.664Z,14.90
2024-05-09T20:34:43.379Z,15.63
2024-05-09T20:37:11.438Z,14.30
2024-05-09T20:39:42.174Z,13.80
2024-05-09T20:42:10.369Z,13.07
2024-05-09T20:44:43.670Z,17.27
2024-05-09T20:47:12.286Z,17.97
2024-05-09T20:49:42.759Z,16.07
2024-05-09T20:52:10.859Z,16.63
2024-05-09T20:54:42.215Z,15.50
2024-05-09T20:57:10.637Z,20.23
2024-05-09T20:59:43.820Z,14.07
2024-05-09T21:02:11.817Z,16.47
2024-05-09T21:04:42.726Z,14.30
2024-05-09T21:07:10.758Z,15.97
2024-05-09T21:09:41.379Z,13.20
2024-05-09T21:12:09.111Z,13.43
2024-05-09T21:14:39.631Z,14.10
2024-05-09T21:17:10.291Z,14.03
2024-05-09T21:19:40.626Z,15.03
2024-05-09T21:22:08.355Z,18.57
2024-05-09T21:24:39.027Z,15.70
2024-05-09T21:27:06.837Z,17.30
2024-05-09T21:29:37.104Z,17.60
2024-05-09T21:32:05.198Z,16.00
2024-05-09T21:34:39.131Z,15.23
2024-05-09T21:37:07.976Z,15.60
2024-05-09T21:39:38.400Z,15.80
2024-05-09T21:42:10.611Z,17.23
2024-05-09T21:44:41.556Z,20.50
2024-05-09T21:47:09.440Z,21.80
2024-05-09T21:49:42.721Z,18.13
2024-05-09T21:52:10.884Z,15.03
2024-05-09T21:54:41.503Z,15.77
2024-05-09T21:57:10.213Z,19.00
2024-05-09T21:59:41.774Z,18.63
2024-05-09T22:02:09.535Z,16.80
2024-05-09T22:04:42.899Z,24.10
2024-05-09T22:07:10.714Z,22.63
2024-05-09T22:09:45.529Z,22.30
2024-05-09T22:12:13.495Z,15.30
2024-05-09T22:14:43.793Z,16.33
2024-05-09T22:17:11.470Z,18.90
2024-05-09T22:19:48.034Z,19.83
2024-05-09T22:22:15.772Z,22.53
2024-05-09T22:24:46.141Z,15.60
2024-05-09T22:27:13.808Z,16.33
2024-05-09T22:29:44.328Z,15.23
2024-05-09T22:32:12.070Z,16.13
2024-05-09T22:34:44.993Z,22.07
2024-05-09T22:37:12.994Z,17.47
2024-05-09T22:39:43.523Z,15.20
2024-05-09T22:42:10.991Z,16.10
2024-05-09T22:44:41.256Z,16.57
2024-05-09T22:47:09.000Z,15.93
2024-05-09T22:49:40.288Z,19.30
2024-05-09T22:52:11.042Z,16.33
2024-05-09T22:54:41.497Z,13.63
2024-05-09T22:57:09.156Z,15.43
2024-05-09T22:59:39.331Z,17.47
2024-05-09T23:02:07.137Z,18.77
2024-05-09T23:04:37.857Z,22.87
2024-05-09T23:07:05.395Z,18.80
2024-05-09T23:09:38.600Z,17.30
2024-05-09T23:12:07.235Z,17.60
2024-05-09T23:14:37.486Z,19.80
2024-05-09T23:17:05.192Z,14.57
2024-05-09T23:19:35.841Z,18.20
2024-05-09T23:22:03.778Z,19.77
2024-05-09T23:24:35.529Z,16.30
2024-05-09T23:27:06.009Z,24.03
2024-05-09T23:29:36.308Z,21.10
2024-05-09T23:32:04.925Z,20.87
2024-05-09T23:34:35.340Z,25.20
2024-05-09T23:37:03.113Z,21.33
2024-05-09T23:39:33.431Z,17.40
2024-05-09T23:42:01.052Z,16.97
2024-05-09T23:44:33.992Z,17.20
2024-05-09T23:47:01.564Z,15.53
2024-05-09T23:49:31.717Z,18.80
2024-05-09T23:51:59.627Z,22.53
2024-05-09T23:54:29.960Z,17.53
2024-05-09T23:56:57.606Z,16.87
2024-05-09T23:59:27.843Z,15.90
